Time;durP1;ratioP1;P1;durP2;ratioP2;P2;SDS_P1;SDS_P2;PMS_P1;PMS_P2;Temp;Humidity;BMP_temperature;BMP_pressure;BME280_temperature;BME280_humidity;BME280_pressure;Samples;Min_cycle;Max_cycle;Signal;HPM_P1;HPM_P2
2023/07/13 00:01:15;;;;;;;;;;;;;;;22.58;56.80;100782.82;107637;1251;110016;-62
2023/07/13 00:03:44;;;;;;;;;;;;;;;22.53;57.11;100783.59;107582;1255;106495;-61
2023/07/13 00:06:12;;;;;;;;;;;;;;;22.47;57.72;100789.14;107480;1251;99154;-61
2023/07/13 00:08:41;;;;;;;;;;;;;;;22.42;57.95;100784.67;107524;1254;99246;-62
2023/07/13 00:11:10;;;;;;;;;;;;;;;22.39;58.23;100789.85;107550;1250;112738;-62
2023/07/13 00:13:39;;;;;;;;;;;;;;;22.38;58.54;100782.76;107638;1251;109952;-60
2023/07/13 00:16:08;;;;;;;;;;;;;;;22.35;58.54;100778.55;107486;1251;108018;-62
2023/07/13 00:18:37;;;;;;;;;;;;;;;22.34;59.07;100777.20;107492;1251;99227;-63
2023/07/13 00:21:07;;;;;;;;;;;;;;;22.32;58.94;100779.44;107549;1251;99174;-63
2023/07/13 00:23:37;;;;;;;;;;;;;;;22.32;59.14;100779.48;107514;1254;112646;-61
2023/07/13 00:26:06;;;;;;;;;;;;;;;22.32;59.07;100773.50;107585;1251;111001;-61
2023/07/13 00:28:35;;;;;;;;;;;;;;;22.32;59.23;100774.77;107515;1251;108585;-61
2023/07/13 00:31:03;;;;;;;;;;;;;;;22.27;59.73;100775.63;107492;1251;99253;-63
2023/07/13 00:33:35;;;;;;;;;;;;;;;22.25;59.72;100777.90;107545;1251;99173;-63
2023/07/13 00:36:04;;;;;;;;;;;;;;;22.24;59.66;100783.29;107530;1254;113241;-64
2023/07/13 00:38:32;;;;;;;;;;;;;;;22.23;60.01;100777.45;107517;1251;109249;-62
2023/07/13 00:41:03;;;;;;;;;;;;;;;22.23;59.69;100776.80;107498;1251;107013;-61
2023/07/13 00:43:31;;;;;;;;;;;;;;;22.20;59.95;100780.02;107580;1251;99244;-62
2023/07/13 00:46:12;;;;;;;;;;;;;;;22.19;60.40;100779.80;107517;1251;99261;-62
2023/07/13 00:48:44;;;;;;;;;;;;;;;22.20;60.79;100779.51;107513;1251;113483;-61
2023/07/13 00:51:14;;;;;;;;;;;;;;;22.21;60.75;100776.77;107564;1251;109613;-61
2023/07/13 00:53:42;;;;;;;;;;;;;;;22.20;60.89;100774.87;107572;1257;107077;-61
2023/07/13 00:56:11;;;;;;;;;;;;;;;22.18;61.33;100770.10;107575;1254;99356;-62
2023/07/13 00:58:40;;;;;;;;;;;;;;;22.13;61.31;100770.91;107647;1253;99925;-61
2023/07/13 01:01:08;;;;;;;;;;;;;;;22.10;60.94;100776.81;107620;1254;113898;-61
2023/07/13 01:03:37;;;;;;;;;;;;;;;22.07;60.95;100778.71;107642;1252;109731;-62
2023/07/13 01:06:06;;;;;;;;;;;;;;;22.02;61.21;100776.79;107590;1253;108058;-62
2023/07/13 01:08:35;;;;;;;;;;;;;;;21.97;61.64;100776.84;107587;1254;99246;-61
2023/07/13 01:11:03;;;;;;;;;;;;;;;21.92;61.74;100779.20;107677;1251;99061;-62
2023/07/13 01:13:31;;;;;;;;;;;;;;;21.88;62.11;100777.14;107577;1251;112928;-62
2023/07/13 01:16:02;;;;;;;;;;;;;;;21.85;62.01;100773.13;107639;1251;108487;-60
2023/07/13 01:18:32;;;;;;;;;;;;;;;21.83;62.50;100772.05;107415;1251;109647;-62
2023/07/13 01:21:02;;;;;;;;;;;;;;;21.79;62.97;100771.07;107607;1254;99169;-61
2023/07/13 01:23:31;;;;;;;;;;;;;;;21.77;63.03;100770.48;107614;1251;99055;-61
2023/07/13 01:26:00;;;;;;;;;;;;;;;21.75;63.76;100773.43;107610;1251;113888;-62
2023/07/13 01:28:28;;;;;;;;;;;;;;;21.73;63.63;100769.04;107631;1251;109161;-64
2023/07/13 01:30:57;;;;;;;;;;;;;;;21.73;63.55;100769.47;107525;1251;108350;-62
2023/07/13 01:33:25;;;;;;;;;;;;;;;21.75;63.62;100767.48;107468;1251;99166;-61
2023/07/13 01:35:54;;;;;;;;;;;;;;;21.76;63.32;100765.13;107478;1251;99166;-62
2023/07/13 01:38:24;;;;;;;;;;;;;;;21.77;63.67;100763.33;107672;1251;113304;-65
2023/07/13 01:40:52;;;;;;;;;;;;;;;21.79;64.98;100766.45;107477;1251;109263;-61
2023/07/13 01:43:21;;;;;;;;;;;;;;;21.82;65.44;100769.22;107495;1254;107821;-60
2023/07/13 01:45:49;;;;;;;;;;;;;;;21.83;66.60;100775.11;107568;1251;99096;-61
2023/07/13 01:48:17;;;;;;;;;;;;;;;21.83;66.22;100774.98;107497;1251;99067;-62
2023/07/13 01:50:47;;;;;;;;;;;;;;;21.85;66.00;100781.77;107477;1251;112177;-61
2023/07/13 01:53:15;;;;;;;;;;;;;;;21.84;65.83;100786.65;107639;1256;109206;-62
2023/07/13 01:55:43;;;;;;;;;;;;;;;21.83;65.64;100787.33;107460;1254;108623;-61
2023/07/13 01:58:11;;;;;;;;;;;;;;;21.83;65.63;100784.42;107417;1254;99173;-60
2023/07/13 02:00:39;;;;;;;;;;;;;;;21.81;65.23;100787.08;107500;1254;99237;-62
2023/07/13 02:03:08;;;;;;;;;;;;;;;21.79;65.51;100786.98;107532;1254;112859;-62
2023/07/13 02:05:36;;;;;;;;;;;;;;;21.76;65.43;100787.55;107568;1254;109712;-61
2023/07/13 02:08:05;;;;;;;;;;;;;;;21.70;65.79;100780.97;107515;1254;107572;-60
2023/07/13 02:10:32;;;;;;;;;;;;;;;21.65;65.64;100781.77;107544;1253;99162;-61
2023/07/13 02:13:01;;;;;;;;;;;;;;;21.60;66.35;100779.11;107438;1259;99766;-63
2023/07/13 02:15:29;;;;;;;;;;;;;;;21.56;66.06;100781.65;107425;1254;112757;-61
2023/07/13 02:17:58;;;;;;;;;;;;;;;21.52;66.27;100785.55;107538;1254;109743;-62
2023/07/13 02:20:26;;;;;;;;;;;;;;;21.50;66.57;100789.52;107651;1256;108598;-60
2023/07/13 02:22:54;;;;;;;;;;;;;;;21.48;66.33;100789.79;107624;1256;99252;-63
2023/07/13 02:25:24;;;;;;;;;;;;;;;21.47;66.71;100787.77;107629;1251;99150;-60
2023/07/13 02:27:53;;;;;;;;;;;;;;;21.47;67.08;100786.59;107461;1251;113462;-60
2023/07/13 02:30:24;;;;;;;;;;;;;;;21.48;67.24;100786.52;107631;1256;108688;-59
2023/07/13 02:32:54;;;;;;;;;;;;;;;21.46;67.03;100781.50;107596;1251;108174;-63
2023/07/13 02:35:23;;;;;;;;;;;;;;;21.43;66.83;100781.34;107535;1254;99182;-64
2023/07/13 02:37:51;;;;;;;;;;;;;;;21.40;67.00;100783.52;107580;1253;99071;-62
2023/07/13 02:40:20;;;;;;;;;;;;;;;21.38;67.04;100788.45;107578;1251;113242;-61
2023/07/13 02:42:48;;;;;;;;;;;;;;;21.34;67.14;100789.82;107581;1251;110577;-60
2023/07/13 02:45:16;;;;;;;;;;;;;;;21.29;67.83;100784.70;107637;1254;108216;-63
2023/07/13 02:47:44;;;;;;;;;;;;;;;21.27;68.16;100786.77;107466;1254;99167;-62
2023/07/13 02:50:13;;;;;;;;;;;;;;;21.24;68.27;100784.59;107565;1254;99229;-63
2023/07/13 02:52:41;;;;;;;;;;;;;;;21.23;68.76;100782.69;107599;1254;112829;-61
2023/07/13 02:55:09;;;;;;;;;;;;;;;21.23;68.89;100786.35;107606;1251;108480;-61
2023/07/13 02:57:37;;;;;;;;;;;;;;;21.23;68.80;100789.80;107495;1251;108062;-61
2023/07/13 03:00:07;;;;;;;;;;;;;;;21.24;68.62;100791.94;107482;1251;99040;-61
2023/07/13 03:02:35;;;;;;;;;;;;;;;21.24;68.43;100792.33;107629;1251;99194;-62
2023/07/13 03:05:04;;;;;;;;;;;;;;;21.24;69.10;100790.27;107537;1251;113155;-62
2023/07/13 03:07:33;;;;;;;;;;;;;;;21.25;68.95;100791.73;107640;1250;108309;-61
2023/07/13 03:10:01;;;;;;;;;;;;;;;21.27;68.93;100798.09;107471;1251;108767;-60
2023/07/13 03:12:38;;;;;;;;;;;;;;;21.29;70.07;100803.65;107460;1251;99838;-61
2023/07/13 03:15:09;;;;;;;;;;;;;;;21.31;69.65;100800.27;107517;1251;99160;-62
2023/07/13 03:17:40;;;;;;;;;;;;;;;21.36;70.47;100807.30;107613;1256;113411;-60
2023/07/13 03:20:09;;;;;;;;;;;;;;;21.40;70.46;100809.86;107479;1254;110324;-61
2023/07/13 03:22:37;;;;;;;;;;;;;;;21.44;71.02;100810.05;107630;1254;107980;-61
2023/07/13 03:25:06;;;;;;;;;;;;;;;21.46;70.79;100812.87;107609;1254;99249;-62
2023/07/13 03:27:34;;;;;;;;;;;;;;;21.50;71.54;100809.13;107619;1254;99234;-61
2023/07/13 03:30:04;;;;;;;;;;;;;;;21.52;72.24;100808.45;107560;1254;112789;-62
2023/07/13 03:32:33;;;;;;;;;;;;;;;21.56;71.30;100808.09;107488;1254;109084;-65
2023/07/13 03:35:01;;;;;;;;;;;;;;;21.63;72.27;100804.13;107469;1254;108141;-62
2023/07/13 03:37:32;;;;;;;;;;;;;;;21.69;71.95;100806.57;107546;1251;99185;-62
2023/07/13 03:40:01;;;;;;;;;;;;;;;21.73;72.44;100808.52;107590;1251;99136;-61
2023/07/13 03:42:30;;;;;;;;;;;;;;;21.76;72.68;100810.03;107583;1251;112660;-62
2023/07/13 03:44:58;;;;;;;;;;;;;;;21.80;72.11;100816.69;107659;1256;110955;-63
2023/07/13 03:47:26;;;;;;;;;;;;;;;21.83;72.73;100813.79;107511;1250;107798;-64
2023/07/13 03:49:55;;;;;;;;;;;;;;;21.84;72.70;100811.26;107654;1252;99167;-62
2023/07/13 03:52:23;;;;;;;;;;;;;;;21.86;72.65;100819.34;107577;1251;99147;-63
2023/07/13 03:54:54;;;;;;;;;;;;;;;21.85;73.61;100818.00;107486;1254;113388;-63
2023/07/13 03:57:25;;;;;;;;;;;;;;;21.85;73.10;100820.45;107589;1253;109078;-63
2023/07/13 03:59:54;;;;;;;;;;;;;;;21.89;72.33;100822.80;107612;1251;106427;-63
2023/07/13 04:02:23;;;;;;;;;;;;;;;21.96;72.26;100822.09;107469;1253;99279;-64
2023/07/13 04:04:52;;;;;;;;;;;;;;;22.03;72.14;100824.91;107629;1253;99055;-64
2023/07/13 04:07:23;;;;;;;;;;;;;;;22.09;71.89;100830.48;107663;1251;113071;-63
2023/07/13 04:09:54;;;;;;;;;;;;;;;22.13;71.70;100835.02;107597;1251;110568;-63
2023/07/13 04:12:24;;;;;;;;;;;;;;;22.15;71.78;100831.27;107530;1256;108238;-61
2023/07/13 04:14:54;;;;;;;;;;;;;;;22.17;71.56;100832.83;107614;1251;99224;-60
2023/07/13 04:17:22;;;;;;;;;;;;;;;22.20;71.46;100833.33;107661;1251;99074;-66
2023/07/13 04:19:51;;;;;;;;;;;;;;;22.23;71.16;100838.14;107582;1254;113844;-64
2023/07/13 04:22:20;;;;;;;;;;;;;;;22.28;70.95;100840.36;107597;1251;110116;-62
2023/07/13 04:24:48;;;;;;;;;;;;;;;22.32;71.03;100849.13;107659;1251;108171;-63
2023/07/13 04:27:16;;;;;;;;;;;;;;;22.37;70.54;100853.50;107649;1251;99167;-63
2023/07/13 04:29:44;;;;;;;;;;;;;;;22.43;70.36;100853.45;107644;1251;99099;-61
2023/07/13 04:32:12;;;;;;;;;;;;;;;22.47;70.04;100858.50;107475;1251;112273;-65
2023/07/13 04:34:40;;;;;;;;;;;;;;;22.50;69.73;100859.00;107520;1254;109650;-63
2023/07/13 04:37:09;;;;;;;;;;;;;;;22.53;69.54;100861.79;107549;1254;108753;-63
2023/07/13 04:39:37;;;;;;;;;;;;;;;22.55;69.56;100865.75;107592;1253;99340;-61
2023/07/13 04:42:05;;;;;;;;;;;;;;;22.58;69.29;100871.02;107611;1251;99171;-63
2023/07/13 04:44:33;;;;;;;;;;;;;;;22.60;69.28;100874.05;107618;1251;112657;-62
2023/07/13 04:47:01;;;;;;;;;;;;;;;22.61;69.07;100872.99;107632;1255;109803;-63
2023/07/13 04:49:30;;;;;;;;;;;;;;;22.61;68.98;100877.63;107635;1253;107714;-63
2023/07/13 04:51:58;;;;;;;;;;;;;;;22.63;69.00;100878.00;107607;1251;99169;-64
2023/07/13 04:54:27;;;;;;;;;;;;;;;22.66;68.69;100877.10;107489;1251;99249;-63
2023/07/13 04:56:55;;;;;;;;;;;;;;;22.71;68.68;100879.46;107582;1253;112508;-63
2023/07/13 04:59:23;;;;;;;;;;;;;;;22.76;68.59;100883.92;107625;1254;110103;-63
2023/07/13 05:01:51;;;;;;;;;;;;;;;22.81;68.06;100889.31;107520;1251;108629;-64
2023/07/13 05:04:19;;;;;;;;;;;;;;;22.86;67.79;100887.61;107607;1256;99357;-64
2023/07/13 05:06:48;;;;;;;;;;;;;;;22.91;67.63;100882.23;107475;1251;99916;-63
2023/07/13 05:09:16;;;;;;;;;;;;;;;22.96;67.53;100882.09;107494;1254;115350;-64
2023/07/13 05:11:53;;;;;;;;;;;;;;;23.02;67.30;100886.27;107534;1250;109499;-66
2023/07/13 05:14:22;;;;;;;;;;;;;;;23.06;66.78;100885.14;107577;1251;109006;-64
2023/07/13 05:16:57;;;;;;;;;;;;;;;23.13;66.71;100891.57;107570;1253;99272;-65
2023/07/13 05:19:30;;;;;;;;;;;;;;;23.19;66.45;100894.67;107577;1251;99105;-61
2023/07/13 05:21:58;;;;;;;;;;;;;;;23.24;66.40;100897.81;107665;1253;113320;-64
2023/07/13 05:24:26;;;;;;;;;;;;;;;23.30;66.17;100898.25;107439;1253;109278;-61
2023/07/13 05:26:54;;;;;;;;;;;;;;;23.36;66.03;100897.45;107584;1256;108548;-62
2023/07/13 05:29:23;;;;;;;;;;;;;;;23.40;65.55;100898.12;107616;1256;99183;-64
2023/07/13 05:31:51;;;;;;;;;;;;;;;23.46;65.47;100900.03;107594;1251;99083;-66
2023/07/13 05:34:25;;;;;;;;;;;;;;;23.53;65.37;100897.04;107611;1253;113336;-66
2023/07/13 05:36:54;;;;;;;;;;;;;;;23.62;65.37;100899.45;107588;1251;110309;-61
2023/07/13 05:39:22;;;;;;;;;;;;;;;23.67;65.04;100903.71;107589;1254;108062;-60
2023/07/13 05:41:50;;;;;;;;;;;;;;;23.72;64.97;100897.98;107546;1251;99167;-62
2023/07/13 05:44:19;;;;;;;;;;;;;;;23.80;64.77;100896.38;107461;1250;99140;-63
2023/07/13 05:46:47;;;;;;;;;;;;;;;23.87;64.40;100900.09;107553;1250;112842;-63
2023/07/13 05:49:16;;;;;;;;;;;;;;;23.92;63.96;100895.07;107556;1251;110040;-63
2023/07/13 05:51:44;;;;;;;;;;;;;;;23.99;63.78;100899.48;107550;1251;107995;-62
2023/07/13 05:54:12;;;;;;;;;;;;;;;24.04;63.71;100891.55;107529;1250;99180;-62
2023/07/13 05:56:49;;;;;;;;;;;;;;;24.11;63.64;100886.80;107571;1251;99190;-63
2023/07/13 05:59:23;;;;;;;;;;;;;;;24.16;63.22;100889.35;107588;1251;113580;-61
2023/07/13 06:01:52;;;;;;;;;;;;;;;24.22;62.92;100893.40;107590;1250;110980;-61
2023/07/13 06:04:20;;;;;;;;;;;;;;;24.30;62.97;100889.97;107547;1251;107623;-61
2023/07/13 06:06:48;;;;;;;;;;;;;;;24.39;62.09;100885.68;107529;1253;99211;-62
2023/07/13 06:09:17;;;;;;;;;;;;;;;24.47;61.47;100887.08;107619;1251;99327;-61
2023/07/13 06:11:45;;;;;;;;;;;;;;;24.54;61.47;100885.05;107639;1255;113716;-61
2023/07/13 06:14:13;;;;;;;;;;;;;;;24.65;61.20;100883.52;107683;1251;110564;-64
2023/07/13 06:16:41;;;;;;;;;;;;;;;24.73;60.48;100884.19;107613;1254;107869;-62
2023/07/13 06:19:09;;;;;;;;;;;;;;;24.81;60.81;100886.08;107597;1253;99028;-62
2023/07/13 06:21:37;;;;;;;;;;;;;;;24.87;59.83;100895.08;107516;1251;99214;-62
2023/07/13 06:24:05;;;;;;;;;;;;;;;24.94;59.40;100901.61;107528;1251;113136;-61
2023/07/13 06:26:34;;;;;;;;;;;;;;;25.02;59.09;100899.87;107543;1254;109725;-60
2023/07/13 06:29:02;;;;;;;;;;;;;;;25.07;58.52;100900.77;107576;1253;108107;-62
2023/07/13 06:31:31;;;;;;;;;;;;;;;25.11;58.16;100899.47;107646;1254;99176;-64
2023/07/13 06:33:59;;;;;;;;;;;;;;;25.14;57.98;100903.75;107631;1251;99160;-61
2023/07/13 06:36:28;;;;;;;;;;;;;;;25.20;58.11;100907.60;107661;1251;113274;-61
2023/07/13 06:38:56;;;;;;;;;;;;;;;25.26;58.26;100902.58;107624;1254;111191;-62
2023/07/13 06:41:30;;;;;;;;;;;;;;;25.32;58.28;100908.52;107609;1251;107349;-65
2023/07/13 06:44:03;;;;;;;;;;;;;;;25.42;58.36;100915.74;107620;1251;99144;-61
2023/07/13 06:46:31;;;;;;;;;;;;;;;25.47;58.06;100919.67;107593;1251;99061;-62
2023/07/13 06:48:59;;;;;;;;;;;;;;;25.52;57.86;100917.40;107598;1251;113550;-61
2023/07/13 06:51:27;;;;;;;;;;;;;;;25.55;57.81;100918.42;107668;1251;109385;-62
2023/07/13 06:53:56;;;;;;;;;;;;;;;25.55;57.07;100914.78;107503;1250;107323;-62
2023/07/13 06:56:24;;;;;;;;;;;;;;;25.56;57.39;100908.91;107507;1250;99217;-61
2023/07/13 06:58:52;;;;;;;;;;;;;;;25.59;57.20;100912.30;107589;1251;99075;-62
2023/07/13 07:01:20;;;;;;;;;;;;;;;25.63;56.66;100911.75;107512;1251;114924;-62
2023/07/13 07:03:48;;;;;;;;;;;;;;;25.65;56.30;100910.91;107588;1251;108422;-60
2023/07/13 07:06:18;;;;;;;;;;;;;;;25.67;56.84;100904.20;107625;1251;108492;-62
2023/07/13 07:08:47;;;;;;;;;;;;;;;25.70;56.82;100906.80;107569;1251;99168;-63
2023/07/13 07:11:17;;;;;;;;;;;;;;;25.74;55.83;100904.33;107515;1251;99050;-62
2023/07/13 07:13:45;;;;;;;;;;;;;;;25.79;55.72;100902.52;107545;1251;113324;-61
2023/07/13 07:16:14;;;;;;;;;;;;;;;25.83;55.15;100899.42;107517;1251;109911;-62
2023/07/13 07:18:42;;;;;;;;;;;;;;;25.88;55.20;100893.83;107589;1251;108343;-61
2023/07/13 07:21:11;;;;;;;;;;;;;;;25.93;54.94;100891.11;107513;1251;99170;-61
2023/07/13 07:23:40;;;;;;;;;;;;;;;26.00;54.94;100886.14;107683;1252;99066;-61
2023/07/13 07:26:11;;;;;;;;;;;;;;;26.07;55.02;100881.75;107468;1253;114075;-64
2023/07/13 07:28:45;;;;;;;;;;;;;;;26.15;55.34;100881.44;107475;1253;109537;-67
2023/07/13 07:31:37;;;;;;;;;;;;;;;26.24;55.40;100880.23;107506;1256;108100;-62
2023/07/13 07:34:10;;;;;;;;;;;;;;;26.34;55.27;100882.17;107531;1251;99169;-66
2023/07/13 07:36:42;;;;;;;;;;;;;;;26.43;55.24;100880.70;107621;1251;99042;-61
2023/07/13 07:39:14;;;;;;;;;;;;;;;26.51;55.55;100879.14;107577;1251;112954;-62
2023/07/13 07:41:42;;;;;;;;;;;;;;;26.61;54.84;100878.59;107601;1251;109677;-63
2023/07/13 07:44:25;;;;;;;;;;;;;;;26.75;54.43;100884.27;107554;1253;108650;-61
2023/07/13 07:46:53;;;;;;;;;;;;;;;26.82;53.94;100882.77;107643;1254;99178;-62
2023/07/13 07:49:22;;;;;;;;;;;;;;;26.86;53.80;100884.64;107637;1254;99199;-61
2023/07/13 07:51:51;;;;;;;;;;;;;;;26.94;54.01;100886.57;107631;1254;111899;-61
2023/07/13 07:54:18;;;;;;;;;;;;;;;27.03;53.01;100894.23;107607;1254;109273;-62
2023/07/13 07:57:08;;;;;;;;;;;;;;;27.11;52.95;100895.77;107584;1254;107100;-64
2023/07/13 07:59:38;;;;;;;;;;;;;;;27.17;52.77;100891.20;107644;1254;99061;-62
2023/07/13 08:02:10;;;;;;;;;;;;;;;27.23;52.81;100890.64;106888;1251;969554;-61
2023/07/13 08:04:58;;;;;;;;;;;;;;;27.30;52.87;100896.98;107577;1251;112593;-65
2023/07/13 08:07:33;;;;;;;;;;;;;;;27.33;52.43;100898.88;107540;1251;109452;-63
2023/07/13 08:10:01;;;;;;;;;;;;;;;27.38;52.12;100901.61;107590;1251;108073;-62
2023/07/13 08:12:29;;;;;;;;;;;;;;;27.43;51.62;100902.55;107578;1252;99191;-61
2023/07/13 08:15:00;;;;;;;;;;;;;;;27.49;51.46;100908.01;107629;1254;99166;-62
2023/07/13 08:17:29;;;;;;;;;;;;;;;27.58;51.82;100912.65;107645;1250;112416;-61
2023/07/13 08:19:58;;;;;;;;;;;;;;;27.67;50.10;100911.87;107581;1251;109582;-62
2023/07/13 08:22:27;;;;;;;;;;;;;;;27.75;49.80;100906.45;107562;1250;108782;-62
2023/07/13 08:24:55;;;;;;;;;;;;;;;27.84;49.72;100903.83;107584;1251;99196;-62
2023/07/13 08:27:25;;;;;;;;;;;;;;;27.88;48.93;100913.42;107707;1251;99163;-62
2023/07/13 08:29:54;;;;;;;;;;;;;;;27.92;48.29;100918.85;107575;1251;112693;-61
2023/07/13 08:32:22;;;;;;;;;;;;;;;27.97;47.76;100913.64;107567;1254;109647;-62
2023/07/13 08:34:51;;;;;;;;;;;;;;;28.06;47.74;100904.16;107603;1253;109522;-62
2023/07/13 08:37:20;;;;;;;;;;;;;;;28.13;47.64;100906.81;107568;1254;99173;-63
2023/07/13 08:39:49;;;;;;;;;;;;;;;28.24;47.57;100898.84;107548;1251;99048;-61
2023/07/13 08:42:23;;;;;;;;;;;;;;;28.39;47.24;100899.52;107550;1251;113622;-61
2023/07/13 08:45:12;;;;;;;;;;;;;;;28.53;47.44;100907.27;107565;1251;109703;-64
2023/07/13 08:47:44;;;;;;;;;;;;;;;28.66;47.28;100904.52;107587;1251;107320;-61
2023/07/13 08:50:14;;;;;;;;;;;;;;;28.76;46.84;100908.86;107584;1251;99237;-62
2023/07/13 08:52:43;;;;;;;;;;;;;;;28.84;46.73;100904.87;107565;1251;99140;-61
2023/07/13 08:55:15;;;;;;;;;;;;;;;28.95;46.56;100895.21;107656;1251;113534;-61
2023/07/13 08:57:45;;;;;;;;;;;;;;;29.05;46.08;100895.29;107586;1250;108711;-63
2023/07/13 09:00:14;;;;;;;;;;;;;;;29.14;45.58;100878.16;107586;1250;108027;-62
2023/07/13 09:03:09;;;;;;;;;;;;;;;29.28;45.41;100880.94;107543;1251;99550;-63
2023/07/13 09:05:42;;;;;;;;;;;;;;;29.42;45.02;100871.14;107544;1251;99092;-61
2023/07/13 09:08:29;;;;;;;;;;;;;;;29.55;45.56;100874.23;107557;1251;112782;-62
2023/07/13 09:11:05;;;;;;;;;;;;;;;29.75;45.53;100871.27;107585;1251;109235;-62
2023/07/13 09:13:52;;;;;;;;;;;;;;;29.97;45.52;100863.10;107524;1251;107695;-60
2023/07/13 09:16:21;;;;;;;;;;;;;;;30.25;45.20;100863.22;107522;1254;99211;-62
2023/07/13 09:18:54;;;;;;;;;;;;;;;30.53;44.54;100862.08;107574;1251;99162;-63
2023/07/13 09:21:25;;;;;;;;;;;;;;;30.78;43.94;100867.00;107614;1251;113022;-62
2023/07/13 09:23:55;;;;;;;;;;;;;;;31.09;43.21;100862.15;107611;1254;109591;-61
2023/07/13 09:26:24;;;;;;;;;;;;;;;31.33;43.08;100869.64;107569;1251;108374;-61
2023/07/13 09:29:12;;;;;;;;;;;;;;;31.49;42.68;100872.62;107509;1251;99271;-62
2023/07/13 09:31:46;;;;;;;;;;;;;;;31.76;41.99;100865.39;107536;1254;99154;-61
2023/07/13 09:34:15;;;;;;;;;;;;;;;32.07;41.52;100864.58;107647;1254;112622;-62
2023/07/13 09:36:44;;;;;;;;;;;;;;;32.31;40.23;100866.98;107590;1251;110141;-62
2023/07/13 09:39:15;;;;;;;;;;;;;;;32.36;39.22;100867.25;107524;1251;106910;-61
2023/07/13 09:42:07;;;;;;;;;;;;;;;32.47;38.63;100858.52;107511;1252;99191;-64
2023/07/13 09:44:43;;;;;;;;;;;;;;;32.79;39.89;100854.23;107621;1251;99240;-62
2023/07/13 09:47:16;;;;;;;;;;;;;;;33.13;37.80;100849.52;107581;1254;113177;-62
2023/07/13 09:49:45;;;;;;;;;;;;;;;33.37;37.82;100842.20;107641;1254;108214;-61
2023/07/13 09:52:15;;;;;;;;;;;;;;;33.67;37.26;100846.64;107582;1251;108020;-63
2023/07/13 09:54:48;;;;;;;;;;;;;;;33.71;36.23;100846.43;107515;1251;99274;-62
2023/07/13 09:57:23;;;;;;;;;;;;;;;33.89;36.54;100840.73;107557;1256;99194;-62
2023/07/13 10:00:09;;;;;;;;;;;;;;;34.27;35.91;100838.88;107627;1254;113718;-62
2023/07/13 10:02:37;;;;;;;;;;;;;;;34.53;35.14;100830.08;107610;1251;109895;-62
2023/07/13 10:05:11;;;;;;;;;;;;;;;34.71;34.89;100830.77;107648;1251;108035;-62
2023/07/13 10:07:44;;;;;;;;;;;;;;;35.00;34.87;100829.53;107542;1253;99166;-63
2023/07/13 10:10:21;;;;;;;;;;;;;;;35.41;34.70;100830.75;107623;1251;99156;-63
2023/07/13 10:12:50;;;;;;;;;;;;;;;35.90;34.68;100832.38;107678;1253;113048;-63
2023/07/13 10:15:20;;;;;;;;;;;;;;;36.27;32.89;100838.11;107619;1254;110679;-61
2023/07/13 10:17:54;;;;;;;;;;;;;;;36.57;32.30;100846.36;107591;1251;108182;-62
2023/07/13 10:20:24;;;;;;;;;;;;;;;36.66;31.25;100847.63;107593;1251;99287;-61
2023/07/13 10:22:57;;;;;;;;;;;;;;;37.02;31.15;100853.02;107638;1251;99186;-61
2023/07/13 10:25:26;;;;;;;;;;;;;;;37.59;30.59;100857.57;107641;1251;112962;-61
2023/07/13 10:27:58;;;;;;;;;;;;;;;38.16;30.22;100861.05;107604;1251;109659;-61
2023/07/13 10:30:29;;;;;;;;;;;;;;;38.53;29.14;100865.92;107628;1251;107375;-61
2023/07/13 10:33:02;;;;;;;;;;;;;;;38.79;28.72;100865.26;107606;1251;99179;-62
2023/07/13 10:35:31;;;;;;;;;;;;;;;39.04;28.07;100861.99;107703;1251;99230;-64
2023/07/13 10:38:20;;;;;;;;;;;;;;;38.93;27.30;100855.62;107622;1250;112401;-63
2023/07/13 10:40:55;;;;;;;;;;;;;;;39.00;28.04;100854.25;107635;1251;109688;-60
2023/07/13 10:43:23;;;;;;;;;;;;;;;39.44;28.07;100860.45;107646;1251;108265;-62
2023/07/13 10:45:51;;;;;;;;;;;;;;;39.90;27.89;100850.45;107585;1251;99181;-64
2023/07/13 10:48:22;;;;;;;;;;;;;;;40.49;28.05;100846.48;107611;1250;99201;-63
2023/07/13 10:50:57;;;;;;;;;;;;;;;40.74;25.81;100847.76;107588;1251;112292;-63
2023/07/13 10:53:30;;;;;;;;;;;;;;;40.84;24.45;100841.48;107646;1251;109733;-62
2023/07/13 10:56:00;;;;;;;;;;;;;;;40.99;24.76;100834.08;107616;1251;107647;-62
2023/07/13 10:58:33;;;;;;;;;;;;;;;41.31;25.37;100829.08;107657;1251;99247;-62
2023/07/13 11:01:11;;;;;;;;;;;;;;;41.61;24.42;100834.38;107660;1251;99106;-62
2023/07/13 11:03:43;;;;;;;;;;;;;;;42.09;24.53;100836.42;107685;1251;113698;-61
2023/07/13 11:06:18;;;;;;;;;;;;;;;42.46;23.49;100837.92;107622;1251;109898;-62
2023/07/13 11:08:46;;;;;;;;;;;;;;;42.71;22.96;100832.62;107618;1253;107230;-62
2023/07/13 11:11:24;;;;;;;;;;;;;;;42.71;21.89;100827.02;107610;1254;99157;-62
2023/07/13 11:13:52;;;;;;;;;;;;;;;42.25;21.94;100821.64;107666;1251;99166;-61
2023/07/13 11:16:20;;;;;;;;;;;;;;;42.33;22.62;100816.56;107614;1251;112722;-63
2023/07/13 11:19:03;;;;;;;;;;;;;;;42.77;23.24;100807.98;107626;1251;108243;-63
2023/07/13 11:21:31;;;;;;;;;;;;;;;43.37;23.38;100804.64;107635;1251;107226;-62
2023/07/13 11:24:16;;;;;;;;;;;;;;;43.96;22.44;100790.44;107629;1254;99166;-62
2023/07/13 11:26:47;;;;;;;;;;;;;;;43.84;20.42;100783.47;107640;1255;99188;-62
2023/07/13 11:29:33;;;;;;;;;;;;;;;43.22;21.51;100788.44;107596;1253;112521;-62
2023/07/13 11:32:21;;;;;;;;;;;;;;;43.44;22.18;100776.05;107613;1254;109615;-61
2023/07/13 11:34:49;;;;;;;;;;;;;;;43.89;20.85;100763.92;107592;1254;108322;-62
2023/07/13 11:37:19;;;;;;;;;;;;;;;44.23;20.56;100760.08;107423;1253;99148;-61
2023/07/13 11:39:48;;;;;;;;;;;;;;;43.82;19.47;100757.74;107659;1252;99255;-61
2023/07/13 11:42:22;;;;;;;;;;;;;;;43.26;19.86;100751.93;107599;1253;113182;-64
2023/07/13 11:44:55;;;;;;;;;;;;;;;43.46;20.49;100738.14;107569;1253;109361;-61
2023/07/13 11:47:40;;;;;;;;;;;;;;;44.03;20.62;100727.27;107585;1253;108548;-62
2023/07/13 11:50:17;;;;;;;;;;;;;;;44.73;20.31;100735.02;107582;1254;99868;-61
2023/07/13 11:52:45;;;;;;;;;;;;;;;44.99;18.91;100757.65;107633;1254;99057;-63
2023/07/13 11:55:15;;;;;;;;;;;;;;;45.13;19.30;100782.35;107617;1253;113243;-68
2023/07/13 11:57:50;;;;;;;;;;;;;;;44.09;19.54;100790.33;107661;1251;109513;-63
2023/07/13 12:00:22;;;;;;;;;;;;;;;43.03;20.61;100799.27;107624;1251;108442;-63
2023/07/13 12:02:52;;;;;;;;;;;;;;;41.87;21.25;100815.60;107635;1251;99272;-62
2023/07/13 12:05:21;;;;;;;;;;;;;;;39.99;22.57;100820.63;107630;1254;99253;-61
2023/07/13 12:07:50;;;;;;;;;;;;;;;38.54;23.95;100831.52;107682;1251;111666;-62
2023/07/13 12:10:19;;;;;;;;;;;;;;;37.11;26.11;100846.80;107606;1251;109067;-60
2023/07/13 12:12:58;;;;;;;;;;;;;;;36.04;27.85;100880.02;107640;1251;108149;-60
2023/07/13 12:15:38;;;;;;;;;;;;;;;35.03;29.53;100978.30;107562;1251;99169;-60
2023/07/13 12:18:13;;;;;;;;;;;;;;;33.76;30.26;101010.23;107608;1254;99090;-62
2023/07/13 12:20:41;;;;;;;;;;;;;;;32.11;33.12;101045.34;107635;1254;113235;-61
2023/07/13 12:23:29;;;;;;;;;;;;;;;30.42;36.55;101050.91;107600;1256;109759;-62
2023/07/13 12:25:59;;;;;;;;;;;;;;;28.83;40.71;101010.35;107597;1254;107917;-62
2023/07/13 12:28:38;;;;;;;;;;;;;;;27.77;46.68;100982.97;107579;1255;99220;-61
2023/07/13 12:31:19;;;;;;;;;;;;;;;26.88;50.49;100916.04;107638;1253;99157;-63
2023/07/13 12:33:47;;;;;;;;;;;;;;;26.52;51.89;100847.23;107633;1251;113813;-61
2023/07/13 12:36:15;;;;;;;;;;;;;;;26.38;54.92;100853.64;107690;1251;109133;-63
2023/07/13 12:38:46;;;;;;;;;;;;;;;25.91;58.07;100928.20;107571;1254;108261;-62